sensor_id;sensor_type;location;lat;lon;timestamp;pressure;altitude;pressure_sealevel;temperature;humidity
12913;BME280;6524;51.368;11.984;2022-10-16T04:02:41;100048.72;;;16.56;100.00
12913;BME280;6524;51.368;11.984;2022-10-16T04:07:41;100040.53;;;16.61;100.00
12913;BME280;6524;51.368;11.984;2022-10-16T04:12:42;100057.63;;;16.68;100.00
12913;BME280;6524;51.368;11.984;2022-10-16T04:17:42;100073.22;;;16.71;99.58
12913;BME280;6524;51.368;11.984;2022-10-16T04:22:43;100080.47;;;16.82;98.86
12913;BME280;6524;51.368;11.984;2022-10-16T04:27:43;100078.31;;;16.74;98.81
12913;BME280;6524;51.368;11.984;2022-10-16T04:32:47;100090.53;;;16.90;98.17
12913;BME280;6524;51.368;11.984;2022-10-16T04:37:48;100089.78;;;16.87;97.73
12913;BME280;6524;51.368;11.984;2022-10-16T04:42:49;100097.38;;;16.92;98.05
12913;BME280;6524;51.368;11.984;2022-10-16T04:47:49;100117.44;;;16.80;98.12
12913;BME280;6524;51.368;11.984;2022-10-16T04:52:49;100120.44;;;16.74;97.76
12913;BME280;6524;51.368;11.984;2022-10-16T04:57:50;100128.31;;;16.88;97.08
12913;BME280;6524;51.368;11.984;2022-10-16T05:02:51;100130.31;;;16.99;96.24
12913;BME280;6524;51.368;11.984;2022-10-16T05:07:51;100126.97;;;17.10;95.38
12913;BME280;6524;51.368;11.984;2022-10-16T05:12:51;100140.91;;;17.12;94.78
12913;BME280;6524;51.368;11.984;2022-10-16T05:17:53;100145.22;;;17.13;94.79
12913;BME280;6524;51.368;11.984;2022-10-16T05:22:54;100143.69;;;17.23;94.00
12913;BME280;6524;51.368;11.984;2022-10-16T05:27:54;100138.78;;;17.17;94.03
12913;BME280;6524;51.368;11.984;2022-10-16T05:32:54;100141.44;;;17.17;93.92
12913;BME280;6524;51.368;11.984;2022-10-16T05:37:55;100152.28;;;17.13;94.52
12913;BME280;6524;51.368;11.984;2022-10-16T05:42:55;100162.16;;;17.09;94.80
12913;BME280;6524;51.368;11.984;2022-10-16T05:47:56;100158.00;;;17.19;93.74
12913;BME280;6524;51.368;11.984;2022-10-16T05:52:56;100171.94;;;17.21;93.93
12913;BME280;6524;51.368;11.984;2022-10-16T05:57:56;100170.41;;;17.17;93.97
12913;BME280;6524;51.368;11.984;2022-10-16T06:02:57;100175.69;;;17.17;93.94
12913;BME280;6524;51.368;11.984;2022-10-16T06:07:57;100169.13;;;17.10;94.51
12913;BME280;6524;51.368;11.984;2022-10-16T06:12:58;100168.66;;;17.18;93.86
12913;BME280;6524;51.368;11.984;2022-10-16T06:17:58;100182.09;;;17.27;93.49
12913;BME280;6524;51.368;11.984;2022-10-16T06:22:58;100183.13;;;17.25;93.48
12913;BME280;6524;51.368;11.984;2022-10-16T06:27:59;100194.22;;;17.30;93.24
12913;BME280;6524;51.368;11.984;2022-10-16T06:32:59;100192.88;;;17.37;93.71
12913;BME280;6524;51.368;11.984;2022-10-16T06:38:02;100190.31;;;17.50;92.61
12913;BME280;6524;51.368;11.984;2022-10-16T06:43:02;100200.72;;;17.51;92.36
12913;BME280;6524;51.368;11.984;2022-10-16T06:48:02;100190.88;;;17.55;92.82
12913;BME280;6524;51.368;11.984;2022-10-16T06:53:03;100182.19;;;17.53;93.57
12913;BME280;6524;51.368;11.984;2022-10-16T06:58:03;100164.41;;;17.42;94.48
12913;BME280;6524;51.368;11.984;2022-10-16T07:03:03;100170.22;;;17.62;93.70
12913;BME280;6524;51.368;11.984;2022-10-16T07:08:04;100189.84;;;17.70;93.71
12913;BME280;6524;51.368;11.984;2022-10-16T07:13:05;100208.84;;;17.75;93.24
12913;BME280;6524;51.368;11.984;2022-10-16T07:18:07;100243.41;;;18.12;91.91
12913;BME280;6524;51.368;11.984;2022-10-16T07:23:08;100228.03;;;18.32;91.17
12913;BME280;6524;51.368;11.984;2022-10-16T07:28:08;100232.28;;;18.34;90.74
12913;BME280;6524;51.368;11.984;2022-10-16T07:33:09;100246.44;;;18.46;90.64
12913;BME280;6524;51.368;11.984;2022-10-16T07:38:09;100248.13;;;18.47;90.71
12913;BME280;6524;51.368;11.984;2022-10-16T07:43:09;100252.63;;;18.85;89.29
12913;BME280;6524;51.368;11.984;2022-10-16T07:48:10;100269.06;;;19.27;87.22
12913;BME280;6524;51.368;11.984;2022-10-16T07:53:10;100271.25;;;19.33;87.50
12913;BME280;6524;51.368;11.984;2022-10-16T07:58:11;100279.84;;;19.24;87.36
12913;BME280;6524;51.368;11.984;2022-10-16T08:03:11;100281.56;;;19.25;87.38
12913;BME280;6524;51.368;11.984;2022-10-16T08:08:16;100285.34;;;19.21;88.42
12913;BME280;6524;51.368;11.984;2022-10-16T08:13:17;100297.00;;;19.18;88.73
12913;BME280;6524;51.368;11.984;2022-10-16T08:18:17;100311.16;;;19.17;88.83
12913;BME280;6524;51.368;11.984;2022-10-16T08:23:18;100316.00;;;19.23;89.21
12913;BME280;6524;51.368;11.984;2022-10-16T08:28:19;100323.56;;;19.79;86.13
12913;BME280;6524;51.368;11.984;2022-10-16T08:33:19;100334.50;;;21.62;77.85
12913;BME280;6524;51.368;11.984;2022-10-16T08:38:20;100324.34;;;21.33;78.50
12913;BME280;6524;51.368;11.984;2022-10-16T08:53:43;100357.78;;;25.08;63.72
12913;BME280;6524;51.368;11.984;2022-10-16T08:58:46;100355.84;;;24.23;64.59
12913;BME280;6524;51.368;11.984;2022-10-16T09:20:19;100371.84;;;24.91;63.31
12913;BME280;6524;51.368;11.984;2022-10-16T09:25:25;100388.97;;;23.49;68.68
12913;BME280;6524;51.368;11.984;2022-10-16T09:30:27;100373.34;;;22.72;71.65
12913;BME280;6524;51.368;11.984;2022-10-16T09:35:37;100381.13;;;24.38;66.70
12913;BME280;6524;51.368;11.984;2022-10-16T09:40:41;100379.75;;;24.83;63.08
12913;BME280;6524;51.368;11.984;2022-10-16T09:45:43;100388.38;;;24.07;65.51
12913;BME280;6524;51.368;11.984;2022-10-16T09:50:43;100390.13;;;23.05;69.11
12913;BME280;6524;51.368;11.984;2022-10-16T09:55:53;100385.09;;;22.70;71.44
12913;BME280;6524;51.368;11.984;2022-10-16T10:00:54;100388.97;;;22.98;70.34
12913;BME280;6524;51.368;11.984;2022-10-16T10:05:54;100415.63;;;23.59;68.90
12913;BME280;6524;51.368;11.984;2022-10-16T10:10:55;100422.59;;;26.68;57.85
12913;BME280;6524;51.368;11.984;2022-10-16T10:15:55;100425.31;;;25.38;61.27
12913;BME280;6524;51.368;11.984;2022-10-16T10:20:59;100413.66;;;24.32;65.02
12913;BME280;6524;51.368;11.984;2022-10-16T10:26:09;100417.44;;;23.80;66.70
12913;BME280;6524;51.368;11.984;2022-10-16T10:31:20;100414.19;;;23.76;66.71
12913;BME280;6524;51.368;11.984;2022-10-16T10:36:34;100425.16;;;23.10;69.28
12913;BME280;6524;51.368;11.984;2022-10-16T10:41:42;100423.78;;;22.83;70.74
12913;BME280;6524;51.368;11.984;2022-10-16T10:46:57;100432.28;;;22.45;72.17
12913;BME280;6524;51.368;11.984;2022-10-16T10:57:32;100426.88;;;22.24;74.24
12913;BME280;6524;51.368;11.984;2022-10-16T11:08:06;100435.09;;;22.21;75.01
12913;BME280;6524;51.368;11.984;2022-10-16T11:13:33;100437.50;;;22.35;74.40
12913;BME280;6524;51.368;11.984;2022-10-16T11:18:50;100437.09;;;22.40;73.57
12913;BME280;6524;51.368;11.984;2022-10-16T11:24:00;100440.91;;;22.26;73.16
12913;BME280;6524;51.368;11.984;2022-10-16T11:29:03;100442.09;;;22.11;73.91
12913;BME280;6524;51.368;11.984;2022-10-16T11:34:29;100450.34;;;22.19;73.69
12913;BME280;6524;51.368;11.984;2022-10-16T11:39:32;100450.78;;;22.35;72.49
12913;BME280;6524;51.368;11.984;2022-10-16T11:44:57;100467.25;;;22.61;71.10
12913;BME280;6524;51.368;11.984;2022-10-16T11:50:02;100458.97;;;23.92;66.08
12913;BME280;6524;51.368;11.984;2022-10-16T11:55:20;100458.69;;;25.61;60.66
12913;BME280;6524;51.368;11.984;2022-10-16T12:00:24;100460.50;;;26.81;56.64
12913;BME280;6524;51.368;11.984;2022-10-16T12:10:51;100476.47;;;27.09;55.52
12913;BME280;6524;51.368;11.984;2022-10-16T12:16:04;100485.53;;;26.35;56.78
12913;BME280;6524;51.368;11.984;2022-10-16T12:21:05;100477.97;;;26.02;57.78
12913;BME280;6524;51.368;11.984;2022-10-16T12:26:06;100467.97;;;26.32;57.90
12913;BME280;6524;51.368;11.984;2022-10-16T12:31:08;100477.47;;;27.08;55.22
12913;BME280;6524;51.368;11.984;2022-10-16T12:36:27;100480.44;;;26.41;56.66
12913;BME280;6524;51.368;11.984;2022-10-16T12:41:31;100484.19;;;25.07;59.60
12913;BME280;6524;51.368;11.984;2022-10-16T12:51:36;100476.34;;;24.27;62.01
12913;BME280;6524;51.368;11.984;2022-10-16T13:02:07;100476.59;;;25.51;58.91
12913;BME280;6524;51.368;11.984;2022-10-16T13:07:40;100475.47;;;25.91;57.24
12913;BME280;6524;51.368;11.984;2022-10-16T13:18:16;100486.16;;;27.45;52.67
12913;BME280;6524;51.368;11.984;2022-10-16T13:23:26;100496.28;;;28.20;51.84
12913;BME280;6524;51.368;11.984;2022-10-16T13:28:32;100490.41;;;28.59;50.21
12913;BME280;6524;51.368;11.984;2022-10-16T13:33:39;100507.00;;;28.20;50.91
12913;BME280;6524;51.368;11.984;2022-10-16T13:38:40;100508.50;;;27.36;53.20
12913;BME280;6524;51.368;11.984;2022-10-16T13:43:44;100507.69;;;26.27;56.29
12913;BME280;6524;51.368;11.984;2022-10-16T13:49:02;100505.28;;;25.20;59.68
12913;BME280;6524;51.368;11.984;2022-10-16T13:54:03;100505.63;;;24.57;60.83
12913;BME280;6524;51.368;11.984;2022-10-16T13:59:22;100518.19;;;24.05;63.59
12913;BME280;6524;51.368;11.984;2022-10-16T14:04:23;100520.31;;;23.81;64.53
12913;BME280;6524;51.368;11.984;2022-10-16T14:09:26;100518.25;;;23.31;67.00
12913;BME280;6524;51.368;11.984;2022-10-16T14:14:42;100519.44;;;23.17;67.11
12913;BME280;6524;51.368;11.984;2022-10-16T14:19:48;100534.91;;;23.12;67.73
12913;BME280;6524;51.368;11.984;2022-10-16T14:24:50;100526.50;;;23.28;66.87
12913;BME280;6524;51.368;11.984;2022-10-16T14:29:50;100531.00;;;23.48;66.49
12913;BME280;6524;51.368;11.984;2022-10-16T14:34:54;100532.09;;;23.46;66.89
12913;BME280;6524;51.368;11.984;2022-10-16T14:39:55;100528.53;;;23.56;65.41
12913;BME280;6524;51.368;11.984;2022-10-16T14:44:56;100530.69;;;23.42;66.57
12913;BME280;6524;51.368;11.984;2022-10-16T14:49:58;100538.56;;;23.11;66.55
12913;BME280;6524;51.368;11.984;2022-10-16T14:55:02;100544.72;;;23.86;64.19
12913;BME280;6524;51.368;11.984;2022-10-16T15:00:10;100549.16;;;24.37;63.02
12913;BME280;6524;51.368;11.984;2022-10-16T15:05:21;100537.91;;;24.23;63.11
12913;BME280;6524;51.368;11.984;2022-10-16T15:10:27;100549.75;;;23.79;63.69
12913;BME280;6524;51.368;11.984;2022-10-16T15:15:36;100554.94;;;23.27;65.13
12913;BME280;6524;51.368;11.984;2022-10-16T15:20:38;100563.25;;;23.02;66.38
12913;BME280;6524;51.368;11.984;2022-10-16T15:25:49;100563.88;;;22.83;67.04
12913;BME280;6524;51.368;11.984;2022-10-16T15:30:51;100566.91;;;22.78;68.14
12913;BME280;6524;51.368;11.984;2022-10-16T15:35:53;100571.50;;;22.76;68.39
12913;BME280;6524;51.368;11.984;2022-10-16T15:40:54;100585.53;;;22.67;68.69
12913;BME280;6524;51.368;11.984;2022-10-16T15:51:05;100586.50;;;22.44;69.88
12913;BME280;6524;51.368;11.984;2022-10-16T15:56:07;100583.75;;;22.23;70.81
12913;BME280;6524;51.368;11.984;2022-10-16T16:01:09;100583.38;;;22.16;70.53
12913;BME280;6524;51.368;11.984;2022-10-16T16:06:12;100585.09;;;21.93;71.93
12913;BME280;6524;51.368;11.984;2022-10-16T16:11:15;100589.47;;;21.59;73.91
12913;BME280;6524;51.368;11.984;2022-10-16T16:16:16;100602.94;;;21.44;74.04
12913;BME280;6524;51.368;11.984;2022-10-16T16:21:17;100610.03;;;21.20;75.34
12913;BME280;6524;51.368;11.984;2022-10-16T16:26:28;100622.41;;;20.95;77.30
12913;BME280;6524;51.368;11.984;2022-10-16T16:31:34;100626.50;;;20.75;77.25
12913;BME280;6524;51.368;11.984;2022-10-16T16:36:35;100641.16;;;20.55;78.04
12913;BME280;6524;51.368;11.984;2022-10-16T16:41:35;100644.75;;;20.29;80.04
12913;BME280;6524;51.368;11.984;2022-10-16T16:46:39;100656.16;;;20.17;80.53
12913;BME280;6524;51.368;11.984;2022-10-16T16:51:40;100658.69;;;20.05;81.52
12913;BME280;6524;51.368;11.984;2022-10-16T16:56:41;100660.38;;;19.94;82.47
12913;BME280;6524;51.368;11.984;2022-10-16T17:01:43;100675.84;;;19.87;83.63
12913;BME280;6524;51.368;11.984;2022-10-16T17:06:44;100686.41;;;19.87;83.04
12913;BME280;6524;51.368;11.984;2022-10-16T17:11:44;100692.56;;;19.87;83.22
12913;BME280;6524;51.368;11.984;2022-10-16T17:16:46;100693.94;;;19.93;83.52
12913;BME280;6524;51.368;11.984;2022-10-16T17:21:49;100696.38;;;19.96;84.38
12913;BME280;6524;51.368;11.984;2022-10-16T17:26:49;100694.06;;;20.04;84.48
12913;BME280;6524;51.368;11.984;2022-10-16T17:31:50;100700.41;;;20.15;84.34
12913;BME280;6524;51.368;11.984;2022-10-16T17:36:50;100694.06;;;20.04;85.10
12913;BME280;6524;51.368;11.984;2022-10-16T17:41:50;100686.31;;;20.01;84.99
12913;BME280;6524;51.368;11.984;2022-10-16T17:46:52;100694.44;;;19.85;86.33
12913;BME280;6524;51.368;11.984;2022-10-16T17:51:53;100704.34;;;19.69;87.75
12913;BME280;6524;51.368;11.984;2022-10-16T17:56:53;100716.13;;;19.63;88.10
12913;BME280;6524;51.368;11.984;2022-10-16T18:01:53;100727.91;;;19.45;90.03
12913;BME280;6524;51.368;11.984;2022-10-16T18:06:54;100730.47;;;19.47;90.31
12913;BME280;6524;51.368;11.984;2022-10-16T18:11:59;100738.66;;;19.56;91.57
12913;BME280;6524;51.368;11.984;2022-10-16T18:17:00;100730.53;;;19.59;92.66
12913;BME280;6524;51.368;11.984;2022-10-16T18:22:00;100741.84;;;19.61;93.02
12913;BME280;6524;51.368;11.984;2022-10-16T18:27:01;100739.19;;;19.61;92.72
12913;BME280;6524;51.368;11.984;2022-10-16T18:32:01;100746.19;;;19.62;92.68
12913;BME280;6524;51.368;11.984;2022-10-16T18:37:02;100747.72;;;19.67;92.59
12913;BME280;6524;51.368;11.984;2022-10-16T18:42:02;100749.59;;;19.64;92.94
12913;BME280;6524;51.368;11.984;2022-10-16T18:47:02;100752.81;;;19.55;93.99
12913;BME280;6524;51.368;11.984;2022-10-16T18:52:03;100745.81;;;19.54;93.40
12913;BME280;6524;51.368;11.984;2022-10-16T18:57:04;100750.34;;;19.52;94.10
12913;BME280;6524;51.368;11.984;2022-10-16T19:02:04;100755.31;;;19.44;94.30
12913;BME280;6524;51.368;11.984;2022-10-16T19:07:06;100758.16;;;19.41;94.61
12913;BME280;6524;51.368;11.984;2022-10-16T19:12:06;100765.97;;;19.42;93.98
12913;BME280;6524;51.368;11.984;2022-10-16T19:17:07;100758.91;;;19.29;95.27
12913;BME280;6524;51.368;11.984;2022-10-16T19:22:07;100772.91;;;19.31;95.68
12913;BME280;6524;51.368;11.984;2022-10-16T19:27:13;100770.66;;;19.52;93.53
12913;BME280;6524;51.368;11.984;2022-10-16T19:32:14;100779.09;;;19.44;93.48
12913;BME280;6524;51.368;11.984;2022-10-16T19:37:14;100779.09;;;19.30;94.33
12913;BME280;6524;51.368;11.984;2022-10-16T19:42:14;100792.53;;;19.12;95.38
12913;BME280;6524;51.368;11.984;2022-10-16T19:47:15;100813.00;;;19.23;94.84
12913;BME280;6524;51.368;11.984;2022-10-16T19:52:15;100812.75;;;19.13;95.34
12913;BME280;6524;51.368;11.984;2022-10-16T19:57:16;100823.31;;;19.13;94.53
12913;BME280;6524;51.368;11.984;2022-10-16T20:02:16;100814.97;;;18.77;95.40
12913;BME280;6524;51.368;11.984;2022-10-16T20:07:17;100833.94;;;18.53;96.46
12913;BME280;6524;51.368;11.984;2022-10-16T20:12:17;100837.66;;;18.35;96.74
12913;BME280;6524;51.368;11.984;2022-10-16T20:17:18;100831.94;;;18.26;97.10
12913;BME280;6524;51.368;11.984;2022-10-16T20:22:18;100828.91;;;18.18;98.56
12913;BME280;6524;51.368;11.984;2022-10-16T20:27:19;100827.59;;;18.25;99.17
12913;BME280;6524;51.368;11.984;2022-10-16T20:32:20;100827.16;;;18.33;99.34
12913;BME280;6524;51.368;11.984;2022-10-16T20:37:20;100832.00;;;18.41;98.79
12913;BME280;6524;51.368;11.984;2022-10-16T20:42:20;100833.13;;;18.37;98.42
12913;BME280;6524;51.368;11.984;2022-10-16T20:47:21;100852.25;;;18.56;96.70
12913;BME280;6524;51.368;11.984;2022-10-16T20:52:21;100852.91;;;18.60;96.08
12913;BME280;6524;51.368;11.984;2022-10-16T20:57:22;100856.94;;;18.51;95.85
12913;BME280;6524;51.368;11.984;2022-10-16T21:02:22;100854.88;;;18.56;95.67
12913;BME280;6524;51.368;11.984;2022-10-16T21:07:22;100852.00;;;18.45;96.50
12913;BME280;6524;51.368;11.984;2022-10-16T21:12:24;100853.19;;;18.55;96.53
12913;BME280;6524;51.368;11.984;2022-10-16T21:17:24;100853.38;;;18.52;96.88
12913;BME280;6524;51.368;11.984;2022-10-16T21:22:29;100856.88;;;18.53;97.75
12913;BME280;6524;51.368;11.984;2022-10-16T21:27:29;100853.56;;;18.49;97.99
12913;BME280;6524;51.368;11.984;2022-10-16T21:32:30;100849.44;;;18.59;97.30
12913;BME280;6524;51.368;11.984;2022-10-16T21:37:30;100849.44;;;18.59;97.28
12913;BME280;6524;51.368;11.984;2022-10-16T21:42:30;100858.97;;;18.62;96.56
12913;BME280;6524;51.368;11.984;2022-10-16T21:47:31;100853.00;;;18.58;97.30
12913;BME280;6524;51.368;11.984;2022-10-16T21:52:33;100863.75;;;18.55;97.15
12913;BME280;6524;51.368;11.984;2022-10-16T21:57:33;100865.63;;;18.53;96.91
12913;BME280;6524;51.368;11.984;2022-10-16T22:02:35;100867.84;;;18.45;97.49
12913;BME280;6524;51.368;11.984;2022-10-16T22:07:35;100873.81;;;18.33;97.91
12913;BME280;6524;51.368;11.984;2022-10-16T22:12:35;100866.94;;;18.14;99.15
12913;BME280;6524;51.368;11.984;2022-10-16T22:17:36;100865.59;;;18.07;99.30
12913;BME280;6524;51.368;11.984;2022-10-16T22:22:36;100858.97;;;18.00;99.63
12913;BME280;6524;51.368;11.984;2022-10-16T22:27:37;100863.66;;;17.95;99.69
12913;BME280;6524;51.368;11.984;2022-10-16T22:32:37;100858.69;;;18.20;97.37
12913;BME280;6524;51.368;11.984;2022-10-16T22:37:37;100863.31;;;18.01;97.99
12913;BME280;6524;51.368;11.984;2022-10-16T22:42:39;100858.03;;;18.01;98.42
12913;BME280;6524;51.368;11.984;2022-10-16T22:47:39;100846.44;;;18.03;97.80
12913;BME280;6524;51.368;11.984;2022-10-16T22:52:40;100854.97;;;17.93;98.09
12913;BME280;6524;51.368;11.984;2022-10-16T22:57:40;100852.59;;;17.88;97.52
12913;BME280;6524;51.368;11.984;2022-10-16T23:02:41;100846.81;;;17.82;97.75
12913;BME280;6524;51.368;11.984;2022-10-16T23:07:41;100847.28;;;17.72;97.93
12913;BME280;6524;51.368;11.984;2022-10-16T23:12:43;100849.81;;;17.58;98.08
12913;BME280;6524;51.368;11.984;2022-10-16T23:17:45;100860.16;;;17.45;95.36
12913;BME280;6524;51.368;11.984;2022-10-16T23:22:45;100850.38;;;17.14;96.37
12913;BME280;6524;51.368;11.984;2022-10-16T23:27:46;100842.75;;;16.92;98.33
12913;BME280;6524;51.368;11.984;2022-10-16T23:32:46;100835.88;;;16.90;99.65
12913;BME280;6524;51.368;11.984;2022-10-16T23:37:49;100843.69;;;16.91;99.37
12913;BME280;6524;51.368;11.984;2022-10-16T23:42:50;100853.06;;;16.79;99.94
12913;BME280;6524;51.368;11.984;2022-10-16T23:47:50;100851.34;;;16.78;100.00
12913;BME280;6524;51.368;11.984;2022-10-16T23:52:51;100847.16;;;16.74;100.00
12913;BME280;6524;51.368;11.984;2022-10-16T23:57:51;100855.06;;;16.74;100.00
